sensor_id;sensor_type;location;lat;lon;timestamp;temperature;humidity
23267;DHT22;11802;53.160;8.214;2023-01-08T00:01:11;9.80;99.90
23267;DHT22;11802;53.160;8.214;2023-01-08T00:03:37;9.80;99.90
23267;DHT22;11802;53.160;8.214;2023-01-08T00:06:05;9.80;99.90
23267;DHT22;11802;53.160;8.214;2023-01-08T00:08:31;9.80;99.90
23267;DHT22;11802;53.160;8.214;2023-01-08T00:10:57;9.80;99.90
23267;DHT22;11802;53.160;8.214;2023-01-08T00:13:26;9.80;99.90
23267;DHT22;11802;53.160;8.214;2023-01-08T00:15:52;9.80;99.90
23267;DHT22;11802;53.160;8.214;2023-01-08T00:18:17;9.80;99.90
23267;DHT22;11802;53.160;8.214;2023-01-08T00:20:44;9.80;99.90
23267;DHT22;11802;53.160;8.214;2023-01-08T00:23:14;9.80;99.90
23267;DHT22;11802;53.160;8.214;2023-01-08T00:25:40;9.80;99.90
23267;DHT22;11802;53.160;8.214;2023-01-08T00:28:06;9.80;99.90
23267;DHT22;11802;53.160;8.214;2023-01-08T00:30:32;9.80;99.90
23267;DHT22;11802;53.160;8.214;2023-01-08T00:32:58;9.80;99.90
23267;DHT22;11802;53.160;8.214;2023-01-08T00:35:23;9.80;99.90
23267;DHT22;11802;53.160;8.214;2023-01-08T00:37:49;9.80;99.90
23267;DHT22;11802;53.160;8.214;2023-01-08T00:40:14;9.90;99.90
23267;DHT22;11802;53.160;8.214;2023-01-08T00:42:40;9.80;99.90
23267;DHT22;11802;53.160;8.214;2023-01-08T00:45:06;9.80;99.90
23267;DHT22;11802;53.160;8.214;2023-01-08T00:47:32;9.80;99.90
23267;DHT22;11802;53.160;8.214;2023-01-08T00:49:57;9.80;99.90
23267;DHT22;11802;53.160;8.214;2023-01-08T00:52:23;9.70;99.90
23267;DHT22;11802;53.160;8.214;2023-01-08T00:54:48;9.70;99.90
23267;DHT22;11802;53.160;8.214;2023-01-08T00:57:14;9.70;99.90
23267;DHT22;11802;53.160;8.214;2023-01-08T00:59:39;9.60;99.90
23267;DHT22;11802;53.160;8.214;2023-01-08T01:02:05;9.60;99.90
23267;DHT22;11802;53.160;8.214;2023-01-08T01:04:30;9.60;99.90
23267;DHT22;11802;53.160;8.214;2023-01-08T01:06:56;9.60;99.90
23267;DHT22;11802;53.160;8.214;2023-01-08T01:09:21;9.60;99.90
23267;DHT22;11802;53.160;8.214;2023-01-08T01:11:47;9.60;99.90
23267;DHT22;11802;53.160;8.214;2023-01-08T01:14:12;9.60;99.90
23267;DHT22;11802;53.160;8.214;2023-01-08T01:16:38;9.70;99.90
23267;DHT22;11802;53.160;8.214;2023-01-08T01:19:06;9.70;99.90
23267;DHT22;11802;53.160;8.214;2023-01-08T01:21:31;9.80;99.90
23267;DHT22;11802;53.160;8.214;2023-01-08T01:24:02;9.80;99.90
23267;DHT22;11802;53.160;8.214;2023-01-08T01:26:29;9.70;99.90
23267;DHT22;11802;53.160;8.214;2023-01-08T01:28:56;9.80;99.90
23267;DHT22;11802;53.160;8.214;2023-01-08T01:31:23;9.80;99.90
23267;DHT22;11802;53.160;8.214;2023-01-08T01:33:49;9.80;99.90
23267;DHT22;11802;53.160;8.214;2023-01-08T01:36:16;9.80;99.90
23267;DHT22;11802;53.160;8.214;2023-01-08T01:38:47;9.80;99.90
23267;DHT22;11802;53.160;8.214;2023-01-08T01:41:22;9.80;99.90
23267;DHT22;11802;53.160;8.214;2023-01-08T01:43:49;9.80;99.90
23267;DHT22;11802;53.160;8.214;2023-01-08T01:48:57;9.90;99.90
23267;DHT22;11802;53.160;8.214;2023-01-08T01:51:28;9.90;99.90
23267;DHT22;11802;53.160;8.214;2023-01-08T01:53:55;9.90;99.90
23267;DHT22;11802;53.160;8.214;2023-01-08T01:56:22;9.90;99.90
23267;DHT22;11802;53.160;8.214;2023-01-08T01:58:47;9.90;99.90
23267;DHT22;11802;53.160;8.214;2023-01-08T02:01:13;9.90;99.90
23267;DHT22;11802;53.160;8.214;2023-01-08T02:03:39;9.90;99.90
23267;DHT22;11802;53.160;8.214;2023-01-08T02:14:12;9.50;99.90
23267;DHT22;11802;53.160;8.214;2023-01-08T02:17:10;9.50;99.90
23267;DHT22;11802;53.160;8.214;2023-01-08T02:19:57;9.40;99.90
23267;DHT22;11802;53.160;8.214;2023-01-08T02:27:56;9.40;99.90
23267;DHT22;11802;53.160;8.214;2023-01-08T02:30:24;9.50;99.90
23267;DHT22;11802;53.160;8.214;2023-01-08T02:32:50;9.50;99.90
23267;DHT22;11802;53.160;8.214;2023-01-08T02:35:15;9.50;99.90
23267;DHT22;11802;53.160;8.214;2023-01-08T02:37:41;9.40;99.90
23267;DHT22;11802;53.160;8.214;2023-01-08T02:40:18;9.40;99.90
23267;DHT22;11802;53.160;8.214;2023-01-08T02:45:27;9.40;99.90
23267;DHT22;11802;53.160;8.214;2023-01-08T02:50:27;9.50;99.90
23267;DHT22;11802;53.160;8.214;2023-01-08T02:55:27;9.60;99.90
23267;DHT22;11802;53.160;8.214;2023-01-08T02:57:55;9.60;99.90
23267;DHT22;11802;53.160;8.214;2023-01-08T03:00:21;9.60;99.90
23267;DHT22;11802;53.160;8.214;2023-01-08T03:02:49;9.70;99.90
23267;DHT22;11802;53.160;8.214;2023-01-08T03:05:22;9.70;99.90
23267;DHT22;11802;53.160;8.214;2023-01-08T03:07:49;9.70;99.90
23267;DHT22;11802;53.160;8.214;2023-01-08T03:10:15;9.70;99.90
23267;DHT22;11802;53.160;8.214;2023-01-08T03:12:49;9.70;99.90
23267;DHT22;11802;53.160;8.214;2023-01-08T03:15:22;9.70;99.90
23267;DHT22;11802;53.160;8.214;2023-01-08T03:17:50;9.60;99.90
23267;DHT22;11802;53.160;8.214;2023-01-08T03:20:20;9.60;99.90
23267;DHT22;11802;53.160;8.214;2023-01-08T03:22:52;9.70;99.90
23267;DHT22;11802;53.160;8.214;2023-01-08T03:25:19;9.70;99.90
23267;DHT22;11802;53.160;8.214;2023-01-08T03:27:49;9.70;99.90
23267;DHT22;11802;53.160;8.214;2023-01-08T03:30:17;9.80;99.90
23267;DHT22;11802;53.160;8.214;2023-01-08T03:32:45;9.80;99.90
23267;DHT22;11802;53.160;8.214;2023-01-08T03:35:14;9.80;99.90
23267;DHT22;11802;53.160;8.214;2023-01-08T03:37:45;9.80;99.90
23267;DHT22;11802;53.160;8.214;2023-01-08T03:40:19;9.80;99.90
23267;DHT22;11802;53.160;8.214;2023-01-08T03:42:45;9.80;99.90
23267;DHT22;11802;53.160;8.214;2023-01-08T03:45:11;9.70;99.90
23267;DHT22;11802;53.160;8.214;2023-01-08T03:47:37;9.80;99.90
23267;DHT22;11802;53.160;8.214;2023-01-08T03:50:07;9.80;99.90
23267;DHT22;11802;53.160;8.214;2023-01-08T03:52:33;9.80;99.90
23267;DHT22;11802;53.160;8.214;2023-01-08T03:54:59;9.70;99.90
23267;DHT22;11802;53.160;8.214;2023-01-08T03:57:25;9.80;99.90
23267;DHT22;11802;53.160;8.214;2023-01-08T03:59:51;9.70;99.90
23267;DHT22;11802;53.160;8.214;2023-01-08T04:02:16;9.80;99.90
23267;DHT22;11802;53.160;8.214;2023-01-08T04:04:42;9.80;99.90
23267;DHT22;11802;53.160;8.214;2023-01-08T04:07:10;9.80;99.90
23267;DHT22;11802;53.160;8.214;2023-01-08T04:09:35;9.80;99.90
23267;DHT22;11802;53.160;8.214;2023-01-08T04:12:01;9.80;99.90
23267;DHT22;11802;53.160;8.214;2023-01-08T04:14:26;9.80;99.90
23267;DHT22;11802;53.160;8.214;2023-01-08T04:16:52;9.80;99.90
23267;DHT22;11802;53.160;8.214;2023-01-08T04:19:17;9.80;99.90
23267;DHT22;11802;53.160;8.214;2023-01-08T04:21:43;9.80;99.90
23267;DHT22;11802;53.160;8.214;2023-01-08T04:24:10;9.80;99.90
23267;DHT22;11802;53.160;8.214;2023-01-08T04:26:36;9.80;99.90
23267;DHT22;11802;53.160;8.214;2023-01-08T04:29:02;9.90;99.90
23267;DHT22;11802;53.160;8.214;2023-01-08T04:31:28;9.80;99.90
23267;DHT22;11802;53.160;8.214;2023-01-08T04:33:54;9.80;99.90
23267;DHT22;11802;53.160;8.214;2023-01-08T04:36:19;9.80;99.90
23267;DHT22;11802;53.160;8.214;2023-01-08T04:38:45;9.80;99.90
23267;DHT22;11802;53.160;8.214;2023-01-08T04:41:10;9.80;99.90
23267;DHT22;11802;53.160;8.214;2023-01-08T04:43:36;9.80;99.90
23267;DHT22;11802;53.160;8.214;2023-01-08T04:46:03;9.80;99.90
23267;DHT22;11802;53.160;8.214;2023-01-08T04:48:31;9.80;99.90
23267;DHT22;11802;53.160;8.214;2023-01-08T04:50:58;9.80;99.90
23267;DHT22;11802;53.160;8.214;2023-01-08T04:53:29;9.80;99.90
23267;DHT22;11802;53.160;8.214;2023-01-08T04:55:54;9.80;99.90
23267;DHT22;11802;53.160;8.214;2023-01-08T04:58:20;9.80;99.90
23267;DHT22;11802;53.160;8.214;2023-01-08T05:00:46;9.80;99.90
23267;DHT22;11802;53.160;8.214;2023-01-08T05:03:11;9.70;99.90
23267;DHT22;11802;53.160;8.214;2023-01-08T05:05:38;9.70;99.90
23267;DHT22;11802;53.160;8.214;2023-01-08T05:08:03;9.70;99.90
23267;DHT22;11802;53.160;8.214;2023-01-08T05:10:29;9.70;99.90
23267;DHT22;11802;53.160;8.214;2023-01-08T05:12:59;9.70;99.90
23267;DHT22;11802;53.160;8.214;2023-01-08T05:15:25;9.70;99.90
23267;DHT22;11802;53.160;8.214;2023-01-08T05:18:01;9.70;99.90
23267;DHT22;11802;53.160;8.214;2023-01-08T05:20:27;9.70;99.90
23267;DHT22;11802;53.160;8.214;2023-01-08T05:22:53;9.60;99.90
23267;DHT22;11802;53.160;8.214;2023-01-08T05:25:19;9.70;99.90
23267;DHT22;11802;53.160;8.214;2023-01-08T05:27:45;9.70;99.90
23267;DHT22;11802;53.160;8.214;2023-01-08T05:30:11;9.70;99.90
23267;DHT22;11802;53.160;8.214;2023-01-08T05:32:36;9.70;99.90
23267;DHT22;11802;53.160;8.214;2023-01-08T05:35:02;9.60;99.90
23267;DHT22;11802;53.160;8.214;2023-01-08T05:37:28;9.60;99.90
23267;DHT22;11802;53.160;8.214;2023-01-08T05:39:53;9.60;99.90
23267;DHT22;11802;53.160;8.214;2023-01-08T05:42:19;9.60;99.90
23267;DHT22;11802;53.160;8.214;2023-01-08T05:44:44;9.50;99.90
23267;DHT22;11802;53.160;8.214;2023-01-08T05:47:10;9.60;99.90
23267;DHT22;11802;53.160;8.214;2023-01-08T05:49:35;9.60;99.90
23267;DHT22;11802;53.160;8.214;2023-01-08T05:52:01;9.50;99.90
23267;DHT22;11802;53.160;8.214;2023-01-08T05:54:26;9.50;99.90
23267;DHT22;11802;53.160;8.214;2023-01-08T05:56:52;9.50;99.90
23267;DHT22;11802;53.160;8.214;2023-01-08T05:59:17;9.50;99.90
23267;DHT22;11802;53.160;8.214;2023-01-08T06:01:43;9.50;99.90
23267;DHT22;11802;53.160;8.214;2023-01-08T06:04:08;9.50;99.90
23267;DHT22;11802;53.160;8.214;2023-01-08T06:06:34;9.50;99.90
23267;DHT22;11802;53.160;8.214;2023-01-08T06:08:59;9.50;99.90
23267;DHT22;11802;53.160;8.214;2023-01-08T06:11:25;9.50;99.90
23267;DHT22;11802;53.160;8.214;2023-01-08T06:13:50;9.50;99.90
23267;DHT22;11802;53.160;8.214;2023-01-08T06:16:16;9.50;99.90
23267;DHT22;11802;53.160;8.214;2023-01-08T06:18:42;9.50;99.90
23267;DHT22;11802;53.160;8.214;2023-01-08T06:21:07;9.50;99.90
23267;DHT22;11802;53.160;8.214;2023-01-08T06:23:33;9.50;99.90
23267;DHT22;11802;53.160;8.214;2023-01-08T06:25:59;9.50;99.90
23267;DHT22;11802;53.160;8.214;2023-01-08T06:28:25;9.40;99.90
23267;DHT22;11802;53.160;8.214;2023-01-08T06:30:51;9.40;99.90
23267;DHT22;11802;53.160;8.214;2023-01-08T06:33:18;9.40;99.90
23267;DHT22;11802;53.160;8.214;2023-01-08T06:35:43;9.30;99.90
23267;DHT22;11802;53.160;8.214;2023-01-08T06:38:09;9.30;99.90
23267;DHT22;11802;53.160;8.214;2023-01-08T06:40:35;9.30;99.90
23267;DHT22;11802;53.160;8.214;2023-01-08T06:43:04;9.30;99.90
23267;DHT22;11802;53.160;8.214;2023-01-08T06:45:30;9.30;99.90
23267;DHT22;11802;53.160;8.214;2023-01-08T06:48:00;9.30;99.90
23267;DHT22;11802;53.160;8.214;2023-01-08T06:50:26;9.20;99.90
23267;DHT22;11802;53.160;8.214;2023-01-08T06:52:53;9.20;99.90
23267;DHT22;11802;53.160;8.214;2023-01-08T06:55:19;9.20;99.90
23267;DHT22;11802;53.160;8.214;2023-01-08T06:57:45;9.20;99.90
23267;DHT22;11802;53.160;8.214;2023-01-08T07:00:11;9.20;99.90
23267;DHT22;11802;53.160;8.214;2023-01-08T07:02:36;9.10;99.90
23267;DHT22;11802;53.160;8.214;2023-01-08T07:05:02;9.10;99.90
23267;DHT22;11802;53.160;8.214;2023-01-08T07:07:27;9.10;99.90
23267;DHT22;11802;53.160;8.214;2023-01-08T07:09:53;9.00;99.90
23267;DHT22;11802;53.160;8.214;2023-01-08T07:12:18;9.00;99.90
23267;DHT22;11802;53.160;8.214;2023-01-08T07:14:44;8.90;99.90
23267;DHT22;11802;53.160;8.214;2023-01-08T07:17:09;8.90;99.90
23267;DHT22;11802;53.160;8.214;2023-01-08T07:19:35;8.90;99.90
23267;DHT22;11802;53.160;8.214;2023-01-08T07:22:01;8.90;99.90
23267;DHT22;11802;53.160;8.214;2023-01-08T07:24:27;8.90;99.90
23267;DHT22;11802;53.160;8.214;2023-01-08T07:26:52;8.80;99.90
23267;DHT22;11802;53.160;8.214;2023-01-08T07:29:18;8.80;99.90
23267;DHT22;11802;53.160;8.214;2023-01-08T07:31:43;8.80;99.90
23267;DHT22;11802;53.160;8.214;2023-01-08T07:34:09;8.80;99.90
23267;DHT22;11802;53.160;8.214;2023-01-08T07:36:35;8.80;99.90
23267;DHT22;11802;53.160;8.214;2023-01-08T07:39:00;8.70;99.90
23267;DHT22;11802;53.160;8.214;2023-01-08T07:41:26;8.70;99.90
23267;DHT22;11802;53.160;8.214;2023-01-08T07:43:51;8.60;99.90
23267;DHT22;11802;53.160;8.214;2023-01-08T07:46:17;8.60;99.90
23267;DHT22;11802;53.160;8.214;2023-01-08T07:48:42;8.60;99.90
23267;DHT22;11802;53.160;8.214;2023-01-08T07:51:09;8.60;99.90
23267;DHT22;11802;53.160;8.214;2023-01-08T07:53:35;8.60;99.90
23267;DHT22;11802;53.160;8.214;2023-01-08T07:56:03;8.60;99.90
23267;DHT22;11802;53.160;8.214;2023-01-08T07:58:30;8.60;99.90
23267;DHT22;11802;53.160;8.214;2023-01-08T08:00:56;8.60;99.90
23267;DHT22;11802;53.160;8.214;2023-01-08T08:03:23;8.70;99.90
23267;DHT22;11802;53.160;8.214;2023-01-08T08:05:49;8.70;99.90
23267;DHT22;11802;53.160;8.214;2023-01-08T08:08:15;8.70;99.90
23267;DHT22;11802;53.160;8.214;2023-01-08T08:10:42;8.80;99.90
23267;DHT22;11802;53.160;8.214;2023-01-08T08:13:08;8.80;99.90
23267;DHT22;11802;53.160;8.214;2023-01-08T08:15:35;8.80;99.90
23267;DHT22;11802;53.160;8.214;2023-01-08T08:18:01;8.90;99.90
23267;DHT22;11802;53.160;8.214;2023-01-08T08:20:27;8.90;99.90
23267;DHT22;11802;53.160;8.214;2023-01-08T08:23:03;8.90;99.90
23267;DHT22;11802;53.160;8.214;2023-01-08T08:25:29;8.90;99.90
23267;DHT22;11802;53.160;8.214;2023-01-08T08:27:56;8.90;99.90
23267;DHT22;11802;53.160;8.214;2023-01-08T08:30:22;8.90;99.90
23267;DHT22;11802;53.160;8.214;2023-01-08T08:32:48;8.90;99.90
23267;DHT22;11802;53.160;8.214;2023-01-08T08:35:14;8.90;99.90
23267;DHT22;11802;53.160;8.214;2023-01-08T08:37:39;8.90;99.90
23267;DHT22;11802;53.160;8.214;2023-01-08T08:40:05;8.90;99.90
23267;DHT22;11802;53.160;8.214;2023-01-08T08:42:31;8.90;99.90
23267;DHT22;11802;53.160;8.214;2023-01-08T08:44:57;8.90;99.90
23267;DHT22;11802;53.160;8.214;2023-01-08T08:47:22;8.90;99.90
23267;DHT22;11802;53.160;8.214;2023-01-08T08:49:48;8.90;99.90
23267;DHT22;11802;53.160;8.214;2023-01-08T08:52:13;8.90;99.90
23267;DHT22;11802;53.160;8.214;2023-01-08T08:54:39;8.90;99.90
23267;DHT22;11802;53.160;8.214;2023-01-08T08:57:06;9.00;99.90
23267;DHT22;11802;53.160;8.214;2023-01-08T08:59:32;9.00;99.90
23267;DHT22;11802;53.160;8.214;2023-01-08T09:01:58;8.90;99.90
23267;DHT22;11802;53.160;8.214;2023-01-08T09:04:23;9.00;99.90
23267;DHT22;11802;53.160;8.214;2023-01-08T09:06:49;9.00;99.90
23267;DHT22;11802;53.160;8.214;2023-01-08T09:09:14;9.00;99.90
23267;DHT22;11802;53.160;8.214;2023-01-08T09:11:40;9.00;99.90
23267;DHT22;11802;53.160;8.214;2023-01-08T09:14:06;9.00;99.90
23267;DHT22;11802;53.160;8.214;2023-01-08T09:16:31;9.00;99.90
23267;DHT22;11802;53.160;8.214;2023-01-08T09:18:57;9.00;99.90
23267;DHT22;11802;53.160;8.214;2023-01-08T09:21:23;8.90;99.90
23267;DHT22;11802;53.160;8.214;2023-01-08T09:23:48;8.90;99.90
23267;DHT22;11802;53.160;8.214;2023-01-08T09:26:14;8.90;99.90
23267;DHT22;11802;53.160;8.214;2023-01-08T09:28:40;8.90;99.90
23267;DHT22;11802;53.160;8.214;2023-01-08T09:31:05;8.90;99.90
23267;DHT22;11802;53.160;8.214;2023-01-08T09:33:31;8.90;99.90
23267;DHT22;11802;53.160;8.214;2023-01-08T09:35:57;8.80;99.90
23267;DHT22;11802;53.160;8.214;2023-01-08T09:38:22;8.80;99.90
23267;DHT22;11802;53.160;8.214;2023-01-08T09:40:56;9.00;99.90
23267;DHT22;11802;53.160;8.214;2023-01-08T09:43:24;9.10;99.90
23267;DHT22;11802;53.160;8.214;2023-01-08T09:45:54;9.10;99.90
23267;DHT22;11802;53.160;8.214;2023-01-08T09:48:24;9.10;99.90
23267;DHT22;11802;53.160;8.214;2023-01-08T09:50:50;9.20;99.90
23267;DHT22;11802;53.160;8.214;2023-01-08T09:53:17;9.40;99.90
23267;DHT22;11802;53.160;8.214;2023-01-08T09:55:44;9.50;99.90
23267;DHT22;11802;53.160;8.214;2023-01-08T09:58:37;9.60;99.90
23267;DHT22;11802;53.160;8.214;2023-01-08T10:01:04;9.60;99.90
23267;DHT22;11802;53.160;8.214;2023-01-08T10:03:40;9.70;99.90
23267;DHT22;11802;53.160;8.214;2023-01-08T10:06:11;9.70;99.90
23267;DHT22;11802;53.160;8.214;2023-01-08T10:08:38;9.70;99.90
23267;DHT22;11802;53.160;8.214;2023-01-08T10:11:04;9.70;99.90
23267;DHT22;11802;53.160;8.214;2023-01-08T10:13:33;9.80;99.90
23267;DHT22;11802;53.160;8.214;2023-01-08T10:15:59;9.80;99.90
23267;DHT22;11802;53.160;8.214;2023-01-08T10:18:26;9.70;99.90
23267;DHT22;11802;53.160;8.214;2023-01-08T10:20:52;9.60;99.90
23267;DHT22;11802;53.160;8.214;2023-01-08T10:23:20;9.70;99.90
23267;DHT22;11802;53.160;8.214;2023-01-08T10:25:51;9.70;99.90
23267;DHT22;11802;53.160;8.214;2023-01-08T10:28:22;9.70;99.90
23267;DHT22;11802;53.160;8.214;2023-01-08T10:30:50;9.70;99.90
23267;DHT22;11802;53.160;8.214;2023-01-08T10:33:31;9.70;99.90
23267;DHT22;11802;53.160;8.214;2023-01-08T10:36:05;9.80;99.90
23267;DHT22;11802;53.160;8.214;2023-01-08T10:38:41;9.80;99.90
23267;DHT22;11802;53.160;8.214;2023-01-08T10:41:12;9.80;99.90
23267;DHT22;11802;53.160;8.214;2023-01-08T10:43:52;9.90;99.90
23267;DHT22;11802;53.160;8.214;2023-01-08T10:46:30;9.90;99.90
23267;DHT22;11802;53.160;8.214;2023-01-08T10:49:00;9.90;99.90
23267;DHT22;11802;53.160;8.214;2023-01-08T10:51:28;9.90;99.90
23267;DHT22;11802;53.160;8.214;2023-01-08T10:53:58;9.90;99.90
23267;DHT22;11802;53.160;8.214;2023-01-08T10:56:27;10.00;99.90
23267;DHT22;11802;53.160;8.214;2023-01-08T10:58:54;10.00;99.90
23267;DHT22;11802;53.160;8.214;2023-01-08T11:01:25;10.00;99.90
23267;DHT22;11802;53.160;8.214;2023-01-08T11:04:00;10.00;99.90
23267;DHT22;11802;53.160;8.214;2023-01-08T11:06:28;10.10;99.90
23267;DHT22;11802;53.160;8.214;2023-01-08T11:08:58;10.10;99.90
23267;DHT22;11802;53.160;8.214;2023-01-08T11:11:31;10.20;99.90
23267;DHT22;11802;53.160;8.214;2023-01-08T11:13:59;10.20;99.90
23267;DHT22;11802;53.160;8.214;2023-01-08T11:16:34;10.30;99.90
23267;DHT22;11802;53.160;8.214;2023-01-08T11:19:03;10.40;99.90
23267;DHT22;11802;53.160;8.214;2023-01-08T11:21:31;10.40;99.90
23267;DHT22;11802;53.160;8.214;2023-01-08T11:24:10;10.50;99.90
23267;DHT22;11802;53.160;8.214;2023-01-08T11:26:40;10.50;99.90
23267;DHT22;11802;53.160;8.214;2023-01-08T11:29:37;10.50;99.90
23267;DHT22;11802;53.160;8.214;2023-01-08T11:35:01;10.50;99.90
23267;DHT22;11802;53.160;8.214;2023-01-08T11:37:36;10.50;99.90
23267;DHT22;11802;53.160;8.214;2023-01-08T11:40:13;10.40;99.90
23267;DHT22;11802;53.160;8.214;2023-01-08T11:45:52;10.40;99.90
23267;DHT22;11802;53.160;8.214;2023-01-08T11:48:29;10.30;99.90
23267;DHT22;11802;53.160;8.214;2023-01-08T11:54:13;10.30;99.90
23267;DHT22;11802;53.160;8.214;2023-01-08T12:04:34;10.20;99.90
23267;DHT22;11802;53.160;8.214;2023-01-08T12:10:22;10.20;99.90
23267;DHT22;11802;53.160;8.214;2023-01-08T12:12:57;10.30;99.90
23267;DHT22;11802;53.160;8.214;2023-01-08T12:18:34;10.20;99.90
23267;DHT22;11802;53.160;8.214;2023-01-08T12:23:54;10.20;99.90
23267;DHT22;11802;53.160;8.214;2023-01-08T12:26:28;10.10;99.90
23267;DHT22;11802;53.160;8.214;2023-01-08T12:32:28;10.20;99.90
23267;DHT22;11802;53.160;8.214;2023-01-08T12:35:12;10.20;98.70
23267;DHT22;11802;53.160;8.214;2023-01-08T12:40:24;10.10;99.90
23267;DHT22;11802;53.160;8.214;2023-01-08T12:42:51;10.10;99.90
23267;DHT22;11802;53.160;8.214;2023-01-08T12:45:29;10.10;99.60
23267;DHT22;11802;53.160;8.214;2023-01-08T12:47:59;10.00;99.90
23267;DHT22;11802;53.160;8.214;2023-01-08T12:50:39;10.00;99.90
23267;DHT22;11802;53.160;8.214;2023-01-08T12:53:20;9.90;99.90
23267;DHT22;11802;53.160;8.214;2023-01-08T12:56:25;9.90;99.90
23267;DHT22;11802;53.160;8.214;2023-01-08T13:04:46;9.80;99.90
23267;DHT22;11802;53.160;8.214;2023-01-08T13:07:19;9.70;99.90
23267;DHT22;11802;53.160;8.214;2023-01-08T13:09:52;9.70;91.70
23267;DHT22;11802;53.160;8.214;2023-01-08T13:12:36;9.80;63.40
23267;DHT22;11802;53.160;8.214;2023-01-08T13:15:05;9.80;33.00
23267;DHT22;11802;53.160;8.214;2023-01-08T13:17:30;9.90;17.30
23267;DHT22;11802;53.160;8.214;2023-01-08T13:20:01;10.00;37.70
23267;DHT22;11802;53.160;8.214;2023-01-08T13:22:35;10.00;14.50
23267;DHT22;11802;53.160;8.214;2023-01-08T13:25:36;10.00;1.00
23267;DHT22;11802;53.160;8.214;2023-01-08T13:28:43;10.00;1.00
23267;DHT22;11802;53.160;8.214;2023-01-08T13:33:46;10.00;50.70
23267;DHT22;11802;53.160;8.214;2023-01-08T13:36:25;10.00;1.00
23267;DHT22;11802;53.160;8.214;2023-01-08T13:39:19;10.00;67.00
23267;DHT22;11802;53.160;8.214;2023-01-08T13:44:40;10.10;65.30
23267;DHT22;11802;53.160;8.214;2023-01-08T13:47:30;10.10;67.60
23267;DHT22;11802;53.160;8.214;2023-01-08T13:49:56;10.10;77.30
23267;DHT22;11802;53.160;8.214;2023-01-08T13:52:30;10.00;68.90
23267;DHT22;11802;53.160;8.214;2023-01-08T13:54:58;10.00;83.90
23267;DHT22;11802;53.160;8.214;2023-01-08T13:57:24;10.00;78.60
23267;DHT22;11802;53.160;8.214;2023-01-08T13:59:54;10.00;69.50
23267;DHT22;11802;53.160;8.214;2023-01-08T14:02:31;10.10;90.00
23267;DHT22;11802;53.160;8.214;2023-01-08T14:04:58;10.00;99.90
23267;DHT22;11802;53.160;8.214;2023-01-08T14:07:25;10.00;99.90
23267;DHT22;11802;53.160;8.214;2023-01-08T14:09:51;10.00;99.90
23267;DHT22;11802;53.160;8.214;2023-01-08T14:12:19;10.00;99.90
23267;DHT22;11802;53.160;8.214;2023-01-08T14:14:55;10.00;99.90
23267;DHT22;11802;53.160;8.214;2023-01-08T14:17:30;10.00;99.90
23267;DHT22;11802;53.160;8.214;2023-01-08T14:19:57;10.10;99.90
23267;DHT22;11802;53.160;8.214;2023-01-08T14:22:29;9.90;99.90
23267;DHT22;11802;53.160;8.214;2023-01-08T14:24:57;9.90;99.90
23267;DHT22;11802;53.160;8.214;2023-01-08T14:27:27;9.90;99.90
23267;DHT22;11802;53.160;8.214;2023-01-08T14:29:53;9.90;99.90
23267;DHT22;11802;53.160;8.214;2023-01-08T14:32:24;9.80;99.90
23267;DHT22;11802;53.160;8.214;2023-01-08T14:34:52;9.80;99.90
23267;DHT22;11802;53.160;8.214;2023-01-08T14:37:18;9.80;99.90
23267;DHT22;11802;53.160;8.214;2023-01-08T14:39:45;9.80;99.90
23267;DHT22;11802;53.160;8.214;2023-01-08T14:42:14;9.80;99.90
23267;DHT22;11802;53.160;8.214;2023-01-08T14:45:03;9.70;99.90
23267;DHT22;11802;53.160;8.214;2023-01-08T14:47:41;9.70;99.90
23267;DHT22;11802;53.160;8.214;2023-01-08T14:50:25;9.70;99.90
23267;DHT22;11802;53.160;8.214;2023-01-08T14:53:19;9.60;99.90
23267;DHT22;11802;53.160;8.214;2023-01-08T14:55:48;9.60;99.90
23267;DHT22;11802;53.160;8.214;2023-01-08T14:58:21;9.60;99.90
23267;DHT22;11802;53.160;8.214;2023-01-08T15:00:56;9.60;99.90
23267;DHT22;11802;53.160;8.214;2023-01-08T15:03:36;9.50;99.90
23267;DHT22;11802;53.160;8.214;2023-01-08T15:06:02;9.50;99.90
23267;DHT22;11802;53.160;8.214;2023-01-08T15:08:42;9.40;99.90
23267;DHT22;11802;53.160;8.214;2023-01-08T15:13:42;9.40;99.90
23267;DHT22;11802;53.160;8.214;2023-01-08T15:16:10;9.30;99.90
23267;DHT22;11802;53.160;8.214;2023-01-08T15:18:45;9.30;99.90
23267;DHT22;11802;53.160;8.214;2023-01-08T15:21:16;9.20;99.90
23267;DHT22;11802;53.160;8.214;2023-01-08T15:23:46;9.10;99.90
23267;DHT22;11802;53.160;8.214;2023-01-08T15:26:13;9.10;99.90
23267;DHT22;11802;53.160;8.214;2023-01-08T15:28:53;9.10;99.90
23267;DHT22;11802;53.160;8.214;2023-01-08T15:31:31;9.10;99.90
23267;DHT22;11802;53.160;8.214;2023-01-08T15:33:58;9.00;99.90
23267;DHT22;11802;53.160;8.214;2023-01-08T15:36:24;9.00;99.90
23267;DHT22;11802;53.160;8.214;2023-01-08T15:38:50;8.90;99.90
23267;DHT22;11802;53.160;8.214;2023-01-08T15:41:22;8.80;99.90
23267;DHT22;11802;53.160;8.214;2023-01-08T15:44:08;8.70;99.90
23267;DHT22;11802;53.160;8.214;2023-01-08T15:46:34;8.60;99.90
23267;DHT22;11802;53.160;8.214;2023-01-08T15:48:59;8.50;99.90
23267;DHT22;11802;53.160;8.214;2023-01-08T15:51:25;8.40;99.90
23267;DHT22;11802;53.160;8.214;2023-01-08T15:53:52;8.40;99.90
23267;DHT22;11802;53.160;8.214;2023-01-08T15:56:18;8.40;99.90
23267;DHT22;11802;53.160;8.214;2023-01-08T15:58:43;8.40;99.90
23267;DHT22;11802;53.160;8.214;2023-01-08T16:01:09;8.50;99.90
23267;DHT22;11802;53.160;8.214;2023-01-08T16:03:34;8.50;99.90
23267;DHT22;11802;53.160;8.214;2023-01-08T16:06:04;8.50;99.90
23267;DHT22;11802;53.160;8.214;2023-01-08T16:08:30;8.50;99.90
23267;DHT22;11802;53.160;8.214;2023-01-08T16:10:55;8.50;99.90
23267;DHT22;11802;53.160;8.214;2023-01-08T16:13:21;8.60;99.90
23267;DHT22;11802;53.160;8.214;2023-01-08T16:15:46;8.60;99.90
23267;DHT22;11802;53.160;8.214;2023-01-08T16:18:13;8.60;99.90
23267;DHT22;11802;53.160;8.214;2023-01-08T16:20:38;8.60;99.90
23267;DHT22;11802;53.160;8.214;2023-01-08T16:23:04;8.60;99.90
23267;DHT22;11802;53.160;8.214;2023-01-08T16:25:30;8.60;99.90
23267;DHT22;11802;53.160;8.214;2023-01-08T16:27:58;8.60;99.90
23267;DHT22;11802;53.160;8.214;2023-01-08T16:30:24;8.60;99.90
23267;DHT22;11802;53.160;8.214;2023-01-08T16:32:53;8.60;99.90
23267;DHT22;11802;53.160;8.214;2023-01-08T16:35:19;8.70;99.90
23267;DHT22;11802;53.160;8.214;2023-01-08T16:37:45;8.60;99.90
23267;DHT22;11802;53.160;8.214;2023-01-08T16:40:12;8.60;99.90
23267;DHT22;11802;53.160;8.214;2023-01-08T16:42:37;8.60;99.90
23267;DHT22;11802;53.160;8.214;2023-01-08T16:45:03;8.60;99.90
23267;DHT22;11802;53.160;8.214;2023-01-08T16:47:29;8.60;99.90
23267;DHT22;11802;53.160;8.214;2023-01-08T16:49:55;8.60;99.90
23267;DHT22;11802;53.160;8.214;2023-01-08T16:52:20;8.50;99.90
23267;DHT22;11802;53.160;8.214;2023-01-08T16:54:46;8.30;99.90
23267;DHT22;11802;53.160;8.214;2023-01-08T16:57:12;8.20;99.90
23267;DHT22;11802;53.160;8.214;2023-01-08T16:59:38;8.10;99.90
23267;DHT22;11802;53.160;8.214;2023-01-08T17:02:04;8.00;99.90
23267;DHT22;11802;53.160;8.214;2023-01-08T17:04:30;8.00;99.90